Time;durP1;ratioP1;P1;durP2;ratioP2;P2;SDS_P1;SDS_P2;PMS_P1;PMS_P2;Temp;Humidity;BMP_temperature;BMP_pressure;BME280_temperature;BME280_humidity;BME280_pressure;Samples;Min_cycle;Max_cycle;Signal;HPM_P1;HPM_P2
2023/09/07 00:02:47;;;;;;;3.17;2.50;;;;;;;;;;10294997;28;21015;-86
2023/09/07 00:07:50;;;;;;;3.78;2.67;;;;;;;;;;10300034;28;20783;-86
2023/09/07 00:12:54;;;;;;;4.95;2.53;;;;;;;;;;10299554;28;20435;-86
2023/09/07 00:17:57;;;;;;;3.42;2.33;;;;;;;;;;10294699;28;20955;-85
2023/09/07 00:23:00;;;;;;;2.88;2.53;;;;;;;;;;10299853;28;21195;-86
2023/09/07 00:28:04;;;;;;;3.87;2.67;;;;;;;;;;10309015;28;20408;-85
2023/09/07 00:33:07;;;;;;;3.30;2.60;;;;;;;;;;10303806;28;20401;-86
2023/09/07 00:38:11;;;;;;;3.90;2.53;;;;;;;;;;10302139;28;20935;-86
2023/09/07 00:43:15;;;;;;;3.53;2.60;;;;;;;;;;10297434;28;20486;-86
2023/09/07 00:48:17;;;;;;;4.07;2.77;;;;;;;;;;10299082;28;20442;-86
2023/09/07 00:53:20;;;;;;;2.88;2.40;;;;;;;;;;10310558;28;20464;-86
2023/09/07 00:58:23;;;;;;;3.70;3.07;;;;;;;;;;10306292;28;20430;-86
2023/09/07 01:03:26;;;;;;;4.23;3.20;;;;;;;;;;10307615;28;20451;-86
2023/09/07 01:08:34;;;;;;;4.35;2.88;;;;;;;;;;10306550;28;20506;-86
2023/09/07 01:13:38;;;;;;;6.45;3.50;;;;;;;;;;10305391;28;20412;-86
2023/09/07 01:18:41;;;;;;;3.85;3.05;;;;;;;;;;10298170;28;20458;-86
2023/09/07 01:23:46;;;;;;;4.77;3.13;;;;;;;;;;10304928;28;20410;-86
2023/09/07 01:28:48;;;;;;;5.28;3.17;;;;;;;;;;10299696;28;20450;-86
2023/09/07 01:33:51;;;;;;;4.77;3.00;;;;;;;;;;10304129;28;20501;-85
2023/09/07 01:38:54;;;;;;;3.35;2.90;;;;;;;;;;10299251;28;20462;-86
2023/09/07 01:43:57;;;;;;;3.67;3.00;;;;;;;;;;10300658;28;20422;-87
2023/09/07 01:48:59;;;;;;;3.97;3.03;;;;;;;;;;10296549;28;20607;-86
2023/09/07 01:54:03;;;;;;;4.90;3.20;;;;;;;;;;10307576;28;20414;-86
2023/09/07 01:59:06;;;;;;;5.22;3.13;;;;;;;;;;10305540;28;20536;-85
2023/09/07 02:04:08;;;;;;;5.73;3.27;;;;;;;;;;10305345;28;20414;-85
2023/09/07 02:09:12;;;;;;;4.07;3.20;;;;;;;;;;10301629;28;20477;-86
2023/09/07 02:14:14;;;;;;;4.07;3.10;;;;;;;;;;10303562;28;20469;-86
2023/09/07 02:19:17;;;;;;;5.85;3.05;;;;;;;;;;10302541;28;20417;-86
2023/09/07 02:24:21;;;;;;;5.07;3.37;;;;;;;;;;10302721;28;20506;-85
2023/09/07 02:29:23;;;;;;;4.47;3.22;;;;;;;;;;10297581;28;20485;-86
2023/09/07 02:34:26;;;;;;;4.73;2.90;;;;;;;;;;10304786;28;20471;-86
2023/09/07 02:39:29;;;;;;;3.85;3.08;;;;;;;;;;10302332;28;20408;-86
2023/09/07 02:44:31;;;;;;;4.68;3.10;;;;;;;;;;10314592;28;20491;-85
2023/09/07 02:49:34;;;;;;;3.90;3.13;;;;;;;;;;10307704;28;20826;-86
2023/09/07 02:54:37;;;;;;;3.67;3.27;;;;;;;;;;10302809;28;20492;-86
2023/09/07 02:59:40;;;;;;;4.18;3.30;;;;;;;;;;10303561;28;20483;-86
2023/09/07 03:04:42;;;;;;;6.40;3.13;;;;;;;;;;10301601;28;20421;-86
2023/09/07 03:09:46;;;;;;;3.28;2.65;;;;;;;;;;10300985;28;20508;-86
2023/09/07 03:14:50;;;;;;;3.67;2.60;;;;;;;;;;10299142;28;20442;-86
2023/09/07 03:19:52;;;;;;;2.88;2.45;;;;;;;;;;10303172;28;20480;-86
2023/09/07 03:24:56;;;;;;;3.17;2.60;;;;;;;;;;10303306;28;20419;-86
2023/09/07 03:29:58;;;;;;;3.40;2.50;;;;;;;;;;10301063;28;20411;-86
2023/09/07 03:35:01;;;;;;;3.22;2.90;;;;;;;;;;10297307;28;20462;-86
2023/09/07 03:40:08;;;;;;;4.07;2.60;;;;;;;;;;10300313;28;20419;-86
2023/09/07 03:45:11;;;;;;;3.33;2.63;;;;;;;;;;10299176;28;20498;-85
2023/09/07 03:50:13;;;;;;;4.32;3.03;;;;;;;;;;10301890;28;20475;-86
2023/09/07 03:55:17;;;;;;;4.07;3.07;;;;;;;;;;10302845;28;20462;-86
2023/09/07 04:00:19;;;;;;;4.40;3.00;;;;;;;;;;10289616;28;20414;-86
2023/09/07 04:05:23;;;;;;;5.22;3.08;;;;;;;;;;10292036;28;20418;-86
2023/09/07 04:10:26;;;;;;;4.80;3.42;;;;;;;;;;10289427;28;20410;-86
2023/09/07 04:15:31;;;;;;;5.40;3.40;;;;;;;;;;10292220;28;20516;-87
2023/09/07 04:20:34;;;;;;;7.63;4.40;;;;;;;;;;10291935;28;20473;-86
2023/09/07 04:25:39;;;;;;;5.03;3.70;;;;;;;;;;10291015;28;20416;-86
2023/09/07 04:30:42;;;;;;;4.13;3.47;;;;;;;;;;10288738;28;20803;-85
2023/09/07 04:35:45;;;;;;;4.90;3.37;;;;;;;;;;10292714;28;20426;-85
2023/09/07 04:40:48;;;;;;;4.53;3.53;;;;;;;;;;10289285;28;20982;-86
2023/09/07 04:45:51;;;;;;;7.40;3.33;;;;;;;;;;10290826;28;20418;-85
2023/09/07 04:50:59;;;;;;;4.97;3.35;;;;;;;;;;10292725;28;20445;-85
2023/09/07 04:56:02;;;;;;;4.90;3.53;;;;;;;;;;10291832;28;20608;-86
2023/09/07 05:01:05;;;;;;;5.00;3.40;;;;;;;;;;10292470;28;20968;-85
2023/09/07 05:06:08;;;;;;;4.75;3.28;;;;;;;;;;10297491;28;20446;-86
2023/09/07 05:11:12;;;;;;;4.37;3.50;;;;;;;;;;10299657;28;20410;-86
2023/09/07 05:16:14;;;;;;;5.40;3.47;;;;;;;;;;10305197;28;20486;-86
2023/09/07 05:21:17;;;;;;;4.70;3.67;;;;;;;;;;10298499;28;20409;-85
2023/09/07 05:26:24;;;;;;;6.72;4.15;;;;;;;;;;10309192;28;20471;-85
2023/09/07 05:31:26;;;;;;;7.13;4.68;;;;;;;;;;10296937;28;20442;-85
2023/09/07 05:36:30;;;;;;;6.53;3.90;;;;;;;;;;10314330;28;20452;-86
2023/09/07 05:41:34;;;;;;;4.57;3.25;;;;;;;;;;10312636;28;20642;-87
2023/09/07 05:46:36;;;;;;;5.15;2.97;;;;;;;;;;10310759;28;20433;-86
2023/09/07 05:51:39;;;;;;;5.40;3.20;;;;;;;;;;10300656;28;20418;-85
2023/09/07 05:56:42;;;;;;;4.38;3.15;;;;;;;;;;10298738;28;20464;-86
2023/09/07 06:01:45;;;;;;;4.47;3.38;;;;;;;;;;10300290;28;20961;-86
2023/09/07 06:06:48;;;;;;;4.23;3.20;;;;;;;;;;10291977;28;20438;-84
2023/09/07 06:11:52;;;;;;;5.28;3.10;;;;;;;;;;10299643;28;20477;-83
2023/09/07 06:16:54;;;;;;;5.87;3.57;;;;;;;;;;10297904;28;20945;-84
2023/09/07 06:21:56;;;;;;;4.47;3.08;;;;;;;;;;10301397;28;20886;-83
2023/09/07 06:27:00;;;;;;;5.97;3.27;;;;;;;;;;10302928;28;20982;-83
2023/09/07 06:32:03;;;;;;;5.95;3.33;;;;;;;;;;10299559;28;20775;-84
2023/09/07 06:37:07;;;;;;;7.60;3.70;;;;;;;;;;10301343;28;20502;-83
2023/09/07 06:42:11;;;;;;;4.73;3.40;;;;;;;;;;10299524;28;20526;-84
2023/09/07 06:47:13;;;;;;;7.40;3.47;;;;;;;;;;10303290;28;20425;-84
2023/09/07 06:52:15;;;;;;;4.17;3.10;;;;;;;;;;10301892;28;20424;-83
2023/09/07 06:57:19;;;;;;;5.75;3.28;;;;;;;;;;10299987;28;20502;-83
2023/09/07 07:02:21;;;;;;;3.83;2.75;;;;;;;;;;10292535;28;20910;-84
2023/09/07 07:07:24;;;;;;;6.13;2.97;;;;;;;;;;10301077;28;20442;-83
2023/09/07 07:12:28;;;;;;;4.03;3.20;;;;;;;;;;10295905;28;20473;-83
2023/09/07 07:17:30;;;;;;;4.30;3.15;;;;;;;;;;10290039;28;20552;-82
2023/09/07 07:22:35;;;;;;;4.33;3.17;;;;;;;;;;10291673;28;20473;-84
2023/09/07 07:27:38;;;;;;;6.80;2.88;;;;;;;;;;10289987;28;20871;-84
2023/09/07 07:32:41;;;;;;;4.63;3.13;;;;;;;;;;10288393;28;20442;-83
2023/09/07 07:37:43;;;;;;;4.32;3.05;;;;;;;;;;10291061;28;20460;-84
2023/09/07 07:42:47;;;;;;;3.50;2.90;;;;;;;;;;10303329;28;20535;-84
2023/09/07 07:47:50;;;;;;;3.50;2.50;;;;;;;;;;10294548;28;20474;-83
2023/09/07 07:52:52;;;;;;;2.80;2.33;;;;;;;;;;10288636;28;20497;-84
2023/09/07 07:57:56;;;;;;;2.47;2.27;;;;;;;;;;10288852;28;20524;-84
2023/09/07 08:02:58;;;;;;;4.97;2.55;;;;;;;;;;10285436;28;20442;-83
2023/09/07 08:08:01;;;;;;;2.95;2.53;;;;;;;;;;10288636;28;20450;-84
2023/09/07 08:13:05;;;;;;;4.45;2.67;;;;;;;;;;10285878;28;20509;-84
2023/09/07 08:18:08;;;;;;;4.10;2.40;;;;;;;;;;10290473;28;20498;-83
2023/09/07 08:23:11;;;;;;;2.65;2.35;;;;;;;;;;10282078;28;20434;-83
2023/09/07 08:28:22;;;;;;;4.33;2.37;;;;;;;;;;10284825;28;20439;-84
2023/09/07 08:33:28;;;;;;;2.92;2.33;;;;;;;;;;10287147;28;20461;-84
2023/09/07 08:38:30;;;;;;;3.10;2.20;;;;;;;;;;10292289;28;20453;-83
2023/09/07 08:43:41;;;;;;;3.13;2.30;;;;;;;;;;10290885;28;20899;-84
2023/09/07 08:48:44;;;;;;;3.75;2.20;;;;;;;;;;10301412;28;20422;-84
2023/09/07 08:53:47;;;;;;;2.90;2.50;;;;;;;;;;10296919;28;20914;-85
2023/09/07 08:58:51;;;;;;;3.13;2.38;;;;;;;;;;10295928;28;20485;-84
2023/09/07 09:03:53;;;;;;;2.97;2.20;;;;;;;;;;10292797;28;20486;-84
2023/09/07 09:08:57;;;;;;;2.70;2.50;;;;;;;;;;10297441;28;20441;-84
2023/09/07 09:14:01;;;;;;;2.20;2.00;;;;;;;;;;10298279;28;20899;-84
2023/09/07 09:19:03;;;;;;;3.97;2.30;;;;;;;;;;10295340;28;20493;-84
2023/09/07 09:24:11;;;;;;;3.60;2.45;;;;;;;;;;10306047;28;20518;-84
2023/09/07 09:29:15;;;;;;;3.23;2.30;;;;;;;;;;10305785;28;20508;-83
2023/09/07 09:34:19;;;;;;;2.75;2.20;;;;;;;;;;10296578;28;20829;-84
2023/09/07 09:39:24;;;;;;;5.00;2.60;;;;;;;;;;10297966;28;20916;-84
2023/09/07 09:44:30;;;;;;;2.93;2.60;;;;;;;;;;10301626;28;20512;-84
2023/09/07 09:49:33;;;;;;;3.38;2.20;;;;;;;;;;10301811;28;20462;-84
2023/09/07 09:54:41;;;;;;;3.77;2.50;;;;;;;;;;10293523;28;20446;-84
2023/09/07 09:59:45;;;;;;;4.50;2.40;;;;;;;;;;10314475;28;20894;-84
2023/09/07 10:04:49;;;;;;;2.87;2.33;;;;;;;;;;10319701;28;20444;-84
2023/09/07 10:09:51;;;;;;;4.68;2.28;;;;;;;;;;10310767;28;20495;-86
2023/09/07 10:14:57;;;;;;;3.00;2.20;;;;;;;;;;10295162;28;20827;-86
2023/09/07 10:20:06;;;;;;;2.60;2.40;;;;;;;;;;10302665;28;20991;-85
2023/09/07 10:25:20;;;;;;;2.63;2.40;;;;;;;;;;10298051;28;21084;-86
2023/09/07 10:30:24;;;;;;;2.80;2.22;;;;;;;;;;10301209;28;20469;-86
2023/09/07 10:35:29;;;;;;;3.80;2.60;;;;;;;;;;10297325;28;21209;-86
2023/09/07 10:40:31;;;;;;;2.90;2.50;;;;;;;;;;10295805;28;20462;-85
2023/09/07 10:45:35;;;;;;;3.03;2.40;;;;;;;;;;10301882;28;20448;-86
2023/09/07 10:50:45;;;;;;;3.00;2.42;;;;;;;;;;10304336;28;20441;-85
2023/09/07 10:55:47;;;;;;;3.65;2.60;;;;;;;;;;10304805;28;20973;-86
2023/09/07 11:00:53;;;;;;;5.53;2.40;;;;;;;;;;10301921;28;20830;-86
2023/09/07 11:06:00;;;;;;;3.03;2.60;;;;;;;;;;10290109;28;20842;-86
2023/09/07 11:11:03;;;;;;;3.38;2.95;;;;;;;;;;10303694;28;20456;-86
2023/09/07 11:16:09;;;;;;;3.00;2.30;;;;;;;;;;10294656;28;20521;-86
2023/09/07 11:21:11;;;;;;;2.95;2.03;;;;;;;;;;10273634;28;20466;-86
2023/09/07 11:26:16;;;;;;;2.85;2.28;;;;;;;;;;10270333;28;20458;-86
2023/09/07 11:31:21;;;;;;;4.70;2.40;;;;;;;;;;10283959;28;22031;-86
2023/09/07 11:36:24;;;;;;;2.55;2.20;;;;;;;;;;10267329;28;20484;-87
2023/09/07 11:41:26;;;;;;;2.50;2.17;;;;;;;;;;10266408;28;20517;-86
2023/09/07 11:46:30;;;;;;;3.10;2.50;;;;;;;;;;10271180;28;20502;-86
2023/09/07 11:51:33;;;;;;;2.45;2.25;;;;;;;;;;10264982;28;20446;-86
2023/09/07 11:56:39;;;;;;;3.40;2.13;;;;;;;;;;10280396;28;20935;-86
2023/09/07 12:01:43;;;;;;;3.57;2.40;;;;;;;;;;10293542;28;20510;-85
2023/09/07 12:06:45;;;;;;;2.75;2.28;;;;;;;;;;10310209;28;20440;-86
2023/09/07 12:11:48;;;;;;;3.55;2.20;;;;;;;;;;10300223;28;20722;-85
2023/09/07 12:16:51;;;;;;;3.33;2.20;;;;;;;;;;10318113;28;20884;-86
2023/09/07 12:21:54;;;;;;;3.00;2.20;;;;;;;;;;10303187;28;20869;-86
2023/09/07 12:26:56;;;;;;;3.70;2.10;;;;;;;;;;10303571;28;20418;-86
2023/09/07 12:32:00;;;;;;;2.67;2.30;;;;;;;;;;10308282;28;20457;-85
2023/09/07 12:37:04;;;;;;;3.00;2.40;;;;;;;;;;10300124;28;20495;-84
2023/09/07 12:42:06;;;;;;;2.78;2.20;;;;;;;;;;10312695;28;20462;-86
2023/09/07 12:47:10;;;;;;;2.67;2.20;;;;;;;;;;10299891;28;20512;-89
2023/09/07 12:52:12;;;;;;;3.25;2.78;;;;;;;;;;10307847;28;20567;-87
2023/09/07 12:57:15;;;;;;;2.40;2.20;;;;;;;;;;10302045;28;20444;-84
2023/09/07 13:02:18;;;;;;;5.00;2.80;;;;;;;;;;10338843;28;20456;-87
2023/09/07 13:07:21;;;;;;;2.88;2.40;;;;;;;;;;10335047;28;20479;-86
2023/09/07 13:12:23;;;;;;;3.53;2.90;;;;;;;;;;10346645;28;20444;-87
2023/09/07 13:17:27;;;;;;;3.90;2.90;;;;;;;;;;10348160;28;20900;-86
2023/09/07 13:22:29;;;;;;;3.50;2.20;;;;;;;;;;10334043;28;20509;-87
2023/09/07 13:27:31;;;;;;;2.42;2.20;;;;;;;;;;10339112;28;20451;-86
2023/09/07 13:32:35;;;;;;;3.63;2.30;;;;;;;;;;10347808;28;20451;-87
2023/09/07 13:37:37;;;;;;;3.40;2.30;;;;;;;;;;10340695;28;20456;-86
2023/09/07 13:42:40;;;;;;;2.60;2.22;;;;;;;;;;10354355;28;20517;-86
2023/09/07 13:47:44;;;;;;;5.50;2.57;;;;;;;;;;10345913;28;20444;-86
2023/09/07 13:52:47;;;;;;;2.45;2.25;;;;;;;;;;10349776;28;20465;-86
2023/09/07 13:57:49;;;;;;;2.35;2.15;;;;;;;;;;10347827;28;21391;-87
2023/09/07 14:02:54;;;;;;;2.47;2.27;;;;;;;;;;10349575;28;20910;-86
2023/09/07 14:07:56;;;;;;;2.30;2.00;;;;;;;;;;10339614;28;20881;-87
2023/09/07 14:12:59;;;;;;;3.90;2.30;;;;;;;;;;10347531;28;20907;-87
2023/09/07 14:18:02;;;;;;;3.30;2.30;;;;;;;;;;10349598;28;20545;-86
2023/09/07 14:23:05;;;;;;;2.55;2.00;;;;;;;;;;10346298;28;20563;-88
2023/09/07 14:28:07;;;;;;;3.22;2.17;;;;;;;;;;10341986;28;20463;-88
2023/09/07 14:33:11;;;;;;;3.65;2.40;;;;;;;;;;10334672;28;20455;-87
2023/09/07 14:38:23;;;;;;;3.38;2.05;;;;;;;;;;10330618;28;20505;-88
2023/09/07 14:43:25;;;;;;;4.37;2.90;;;;;;;;;;10328104;28;20522;-87
2023/09/07 14:48:29;;;;;;;2.75;2.22;;;;;;;;;;10316013;28;20954;-88
2023/09/07 14:53:31;;;;;;;4.05;2.00;;;;;;;;;;10325689;28;20471;-88
2023/09/07 14:58:34;;;;;;;3.43;2.20;;;;;;;;;;10329759;28;20448;-88
2023/09/07 15:03:40;;;;;;;2.55;2.00;;;;;;;;;;10320775;28;20515;-88
2023/09/07 15:08:42;;;;;;;3.00;2.07;;;;;;;;;;10326667;28;21223;-88
2023/09/07 15:13:45;;;;;;;2.83;2.20;;;;;;;;;;10324755;28;20491;-87
2023/09/07 15:18:51;;;;;;;2.30;2.07;;;;;;;;;;10319822;28;20956;-88
2023/09/07 15:23:53;;;;;;;3.37;2.30;;;;;;;;;;10329817;28;20452;-87
2023/09/07 15:28:55;;;;;;;3.25;2.13;;;;;;;;;;10331607;28;20453;-88
2023/09/07 15:33:59;;;;;;;2.72;2.40;;;;;;;;;;10323421;28;20452;-87
2023/09/07 15:39:02;;;;;;;3.05;2.40;;;;;;;;;;10327873;28;20452;-89
2023/09/07 15:44:05;;;;;;;2.88;2.20;;;;;;;;;;10323754;28;20563;-88
2023/09/07 15:49:08;;;;;;;2.72;2.38;;;;;;;;;;10328254;28;20451;-85
2023/09/07 15:54:11;;;;;;;2.70;2.33;;;;;;;;;;10338093;28;20880;-87
2023/09/07 15:59:13;;;;;;;2.42;2.22;;;;;;;;;;10329283;28;20460;-87
2023/09/07 16:04:17;;;;;;;3.35;2.10;;;;;;;;;;10338557;28;20937;-86
2023/09/07 16:09:19;;;;;;;3.30;2.13;;;;;;;;;;10313715;28;20477;-86
2023/09/07 16:14:22;;;;;;;3.20;2.10;;;;;;;;;;10321222;28;20522;-86
2023/09/07 16:19:26;;;;;;;3.00;2.60;;;;;;;;;;10306991;28;20578;-86
2023/09/07 16:24:28;;;;;;;3.40;2.60;;;;;;;;;;10312026;28;20523;-86
2023/09/07 16:29:31;;;;;;;3.38;2.58;;;;;;;;;;10302246;28;20507;-86
2023/09/07 16:34:35;;;;;;;3.50;2.50;;;;;;;;;;10315693;28;20456;-88
2023/09/07 16:39:37;;;;;;;4.65;2.30;;;;;;;;;;10317781;28;20506;-88
2023/09/07 16:44:41;;;;;;;5.00;2.30;;;;;;;;;;10320558;28;20455;-85
2023/09/07 16:49:45;;;;;;;4.88;2.40;;;;;;;;;;10325005;28;20448;-86
2023/09/07 16:54:47;;;;;;;3.47;2.42;;;;;;;;;;10323278;28;20524;-86
2023/09/07 16:59:51;;;;;;;4.20;2.65;;;;;;;;;;10312841;28;20460;-83
2023/09/07 17:04:55;;;;;;;3.67;2.40;;;;;;;;;;10325500;28;20517;-84
2023/09/07 17:09:58;;;;;;;4.40;2.53;;;;;;;;;;10333027;28;20446;-90
2023/09/07 17:15:00;;;;;;;5.00;2.60;;;;;;;;;;10332368;28;20452;-87
2023/09/07 17:20:05;;;;;;;3.83;2.40;;;;;;;;;;10327090;28;20487;-86
2023/09/07 17:25:08;;;;;;;5.63;3.70;;;;;;;;;;10330166;28;20448;-85
2023/09/07 17:30:11;;;;;;;5.85;3.15;;;;;;;;;;10310474;28;20900;-85
2023/09/07 17:35:15;;;;;;;6.95;3.10;;;;;;;;;;10329061;28;21311;-85
2023/09/07 17:40:17;;;;;;;4.77;2.50;;;;;;;;;;10322868;28;20496;-86
2023/09/07 17:45:20;;;;;;;4.67;2.80;;;;;;;;;;10350457;28;20533;-86
2023/09/07 17:50:23;;;;;;;5.97;2.70;;;;;;;;;;10335459;28;20460;-85
2023/09/07 17:55:27;;;;;;;5.22;3.10;;;;;;;;;;10320943;28;20452;-87
2023/09/07 18:00:29;;;;;;;5.72;3.03;;;;;;;;;;10335668;28;20917;-86
2023/09/07 18:05:33;;;;;;;5.13;3.50;;;;;;;;;;10332298;28;20941;-85
2023/09/07 18:10:35;;;;;;;7.25;3.42;;;;;;;;;;10329514;28;20483;-85
2023/09/07 18:15:38;;;;;;;5.15;3.38;;;;;;;;;;10330602;28;21201;-86
2023/09/07 18:20:45;;;;;;;5.88;3.05;;;;;;;;;;10335676;28;20494;-86
2023/09/07 18:25:47;;;;;;;3.70;3.10;;;;;;;;;;10329838;28;20441;-84
2023/09/07 18:30:49;;;;;;;3.80;2.90;;;;;;;;;;10336570;28;20500;-83
2023/09/07 18:36:02;;;;;;;7.90;3.30;;;;;;;;;;10328005;28;20491;-84
2023/09/07 18:41:05;;;;;;;4.90;3.40;;;;;;;;;;10337314;28;20490;-84
2023/09/07 18:46:08;;;;;;;5.93;3.60;;;;;;;;;;10328130;28;20475;-84
2023/09/07 18:51:12;;;;;;;7.90;4.25;;;;;;;;;;10332820;28;20451;-83
2023/09/07 18:56:14;;;;;;;9.40;4.00;;;;;;;;;;10335731;28;20443;-84
2023/09/07 19:01:18;;;;;;;10.32;4.50;;;;;;;;;;10328104;28;20524;-84
2023/09/07 19:06:22;;;;;;;10.90;5.45;;;;;;;;;;10327630;28;20925;-84
2023/09/07 19:11:25;;;;;;;10.05;5.00;;;;;;;;;;10327075;28;20756;-83
2023/09/07 19:16:27;;;;;;;8.70;4.82;;;;;;;;;;10329622;28;20439;-83
2023/09/07 19:21:32;;;;;;;6.55;4.82;;;;;;;;;;10322041;28;20534;-84
2023/09/07 19:26:36;;;;;;;9.87;4.83;;;;;;;;;;10331082;28;20460;-84
2023/09/07 19:31:39;;;;;;;6.97;4.55;;;;;;;;;;10327629;28;20445;-83
2023/09/07 19:36:43;;;;;;;6.80;4.53;;;;;;;;;;10330371;28;20534;-84
2023/09/07 19:41:45;;;;;;;6.28;4.47;;;;;;;;;;10328171;28;20534;-83
2023/09/07 19:46:48;;;;;;;6.97;4.57;;;;;;;;;;10329229;28;20444;-84
2023/09/07 19:51:52;;;;;;;9.95;4.97;;;;;;;;;;10318587;28;20526;-83
2023/09/07 19:56:54;;;;;;;5.00;4.20;;;;;;;;;;10321999;28;20445;-82
2023/09/07 20:01:59;;;;;;;7.03;4.60;;;;;;;;;;10317141;28;20534;-82
2023/09/07 20:07:03;;;;;;;7.60;4.40;;;;;;;;;;10322377;28;20437;-83
2023/09/07 20:12:06;;;;;;;6.53;3.97;;;;;;;;;;10330238;28;20520;-82
2023/09/07 20:17:08;;;;;;;6.25;4.22;;;;;;;;;;10326357;28;20460;-82
2023/09/07 20:22:14;;;;;;;4.72;3.60;;;;;;;;;;10321147;28;20478;-83
2023/09/07 20:27:17;;;;;;;4.82;3.83;;;;;;;;;;10322763;28;20456;-83
2023/09/07 20:32:19;;;;;;;5.15;3.67;;;;;;;;;;10328941;28;20464;-82
2023/09/07 20:37:23;;;;;;;5.75;3.70;;;;;;;;;;10330091;28;20457;-82
2023/09/07 20:42:25;;;;;;;6.27;3.77;;;;;;;;;;10328062;28;20449;-82
2023/09/07 20:47:28;;;;;;;4.25;3.42;;;;;;;;;;10337613;28;20511;-82
2023/09/07 20:52:32;;;;;;;5.90;3.50;;;;;;;;;;10337990;28;20441;-82
2023/09/07 20:57:35;;;;;;;5.67;3.60;;;;;;;;;;10337321;28;20448;-82
2023/09/07 21:02:37;;;;;;;5.00;3.38;;;;;;;;;;10336685;28;20517;-82
2023/09/07 21:07:41;;;;;;;4.72;3.55;;;;;;;;;;10336623;28;20522;-82
2023/09/07 21:12:45;;;;;;;4.85;3.60;;;;;;;;;;10331514;28;20510;-83
2023/09/07 21:17:47;;;;;;;4.78;3.85;;;;;;;;;;10335367;28;20537;-82
2023/09/07 21:22:51;;;;;;;5.32;3.47;;;;;;;;;;10326900;28;21123;-83
2023/09/07 21:27:53;;;;;;;5.07;3.58;;;;;;;;;;10331545;28;20448;-82
2023/09/07 21:32:56;;;;;;;5.17;3.90;;;;;;;;;;10331420;28;20531;-82
2023/09/07 21:38:00;;;;;;;4.95;3.60;;;;;;;;;;10326275;28;20445;-83
2023/09/07 21:43:03;;;;;;;6.10;3.80;;;;;;;;;;10333457;28;20820;-83
2023/09/07 21:48:06;;;;;;;5.35;4.30;;;;;;;;;;10337186;28;20518;-82
2023/09/07 21:53:10;;;;;;;4.20;3.75;;;;;;;;;;10327374;28;21060;-82
2023/09/07 21:58:12;;;;;;;8.77;4.05;;;;;;;;;;10339503;28;20483;-82
2023/09/07 22:03:15;;;;;;;6.23;4.23;;;;;;;;;;10332156;28;20534;-82
2023/09/07 22:08:19;;;;;;;5.78;3.80;;;;;;;;;;10335543;28;20509;-82
2023/09/07 22:13:21;;;;;;;5.88;3.53;;;;;;;;;;10326392;28;20558;-84
2023/09/07 22:18:24;;;;;;;4.20;3.80;;;;;;;;;;10333921;28;20491;-84
2023/09/07 22:23:28;;;;;;;4.47;3.72;;;;;;;;;;10328891;28;20456;-83
2023/09/07 22:28:31;;;;;;;4.43;3.57;;;;;;;;;;10327187;28;20773;-83
2023/09/07 22:33:33;;;;;;;6.90;3.85;;;;;;;;;;10333238;28;20471;-83
2023/09/07 22:38:40;;;;;;;7.57;3.73;;;;;;;;;;10329827;28;20444;-83
2023/09/07 22:43:42;;;;;;;4.10;3.70;;;;;;;;;;10338337;28;20472;-83
2023/09/07 22:48:44;;;;;;;7.05;4.32;;;;;;;;;;10336245;28;20491;-82
2023/09/07 22:53:48;;;;;;;5.28;4.00;;;;;;;;;;10321449;28;20425;-82
2023/09/07 22:58:50;;;;;;;5.88;4.45;;;;;;;;;;10330315;28;20933;-82
2023/09/07 23:03:53;;;;;;;6.75;4.03;;;;;;;;;;10316371;23;20521;-83
2023/09/07 23:08:57;;;;;;;6.83;3.53;;;;;;;;;;10305329;28;20735;-82
2023/09/07 23:13:59;;;;;;;4.63;3.72;;;;;;;;;;10303251;28;20414;-82
2023/09/07 23:19:02;;;;;;;6.35;4.25;;;;;;;;;;10306313;28;20440;-82
2023/09/07 23:24:05;;;;;;;6.67;4.10;;;;;;;;;;10303313;28;20498;-83
2023/09/07 23:29:08;;;;;;;6.13;3.90;;;;;;;;;;10306630;28;20440;-83
2023/09/07 23:34:14;;;;;;;5.53;3.83;;;;;;;;;;10309154;28;20397;-82
2023/09/07 23:39:18;;;;;;;5.45;3.97;;;;;;;;;;10316126;28;20408;-82
2023/09/07 23:44:20;;;;;;;5.63;3.83;;;;;;;;;;10314007;28;20513;-82
2023/09/07 23:49:22;;;;;;;5.63;3.87;;;;;;;;;;10305179;28;20462;-82
2023/09/07 23:54:26;;;;;;;5.07;3.70;;;;;;;;;;10301685;28;20449;-83
2023/09/07 23:59:28;;;;;;;6.93;4.27;;;;;;;;;;10310052;28;20460;-82
